Time,TemperatureF,DewpointF,PressureIn,WindDirection,WindDirectionDegrees,WindSpeedMPH,WindSpeedGustMPH,Humidity,HourlyPrecipIn,Conditions,Clouds,dailyrainin,SolarRadiationWatts/m^2,SoftwareType,DateUTC
2013-06-30 00:00:00,81.1,80.6,30.02,East,82,0.0,8.0,98,0.00,,,0.00,0.0,meteohub,2013-06-30 04:00:00,
2013-06-30 00:01:00,81.1,80.6,30.02,ENE,69,6.0,8.0,98,0.00,,,0.00,0.0,meteohub,2013-06-30 04:01:00,
2013-06-30 00:02:00,81.1,80.6,30.02,ESE,106,6.0,8.0,98,0.00,,,0.00,0.0,meteohub,2013-06-30 04:02:00,
2013-06-30 00:07:00,81.1,80.8,30.02,East,88,2.0,8.0,99,0.00,,,0.00,0.0,meteohub,2013-06-30 04:07:00,
2013-06-30 00:12:00,81.0,81.0,30.02,ENE,78,3.0,11.0,100,0.00,,,0.00,0.0,meteohub,2013-06-30 04:12:00,
2013-06-30 00:17:00,80.8,80.8,30.02,ESE,116,5.0,11.0,100,0.00,,,0.00,0.0,meteohub,2013-06-30 04:17:00,
2013-06-30 00:22:00,80.4,80.4,30.02,NE,52,8.0,11.0,100,0.00,,,0.00,0.0,meteohub,2013-06-30 04:22:00,
2013-06-30 00:27:00,80.4,80.4,30.02,East,88,9.0,10.0,100,0.00,,,0.00,0.0,meteohub,2013-06-30 04:27:00,
2013-06-30 00:32:00,80.2,80.2,30.02,East,95,6.0,10.0,100,0.00,,,0.00,0.0,meteohub,2013-06-30 04:32:00,
2013-06-30 00:37:00,80.4,80.4,30.02,East,88,0.0,11.0,100,0.00,,,0.00,0.0,meteohub,2013-06-30 04:37:00,
2013-06-30 00:42:00,80.2,80.2,30.01,ENE,71,0.0,11.0,100,0.00,,,0.00,0.0,meteohub,2013-06-30 04:42:00,
2013-06-30 00:47:00,80.2,80.2,30.01,East,89,0.0,11.0,100,0.00,,,0.00,0.0,meteohub,2013-06-30 04:47:00,
2013-06-30 00:52:00,80.2,80.2,30.01,East,89,0.0,6.0,100,0.00,,,0.00,0.0,meteohub,2013-06-30 04:52:00,
2013-06-30 00:57:00,80.2,80.2,30.00,East,90,0.0,6.0,100,0.00,,,0.00,0.0,meteohub,2013-06-30 04:57:00,
2013-06-30 01:03:00,80.4,80.4,30.00,East,90,0.0,6.0,100,0.00,,,0.00,0.0,meteohub,2013-06-30 05:03:00,
2013-06-30 01:08:00,80.4,80.4,30.00,East,90,0.0,6.0,100,0.00,,,0.00,0.0,meteohub,2013-06-30 05:08:00,
2013-06-30 01:13:00,80.4,80.4,30.00,East,95,0.0,6.0,100,0.00,,,0.00,0.0,meteohub,2013-06-30 05:13:00,
2013-06-30 01:18:00,80.4,80.4,30.00,ENE,72,5.0,6.0,100,0.00,,,0.00,0.0,meteohub,2013-06-30 05:18:00,
2013-06-30 01:23:00,80.4,80.4,30.00,ESE,113,5.0,7.0,100,0.00,,,0.00,0.0,meteohub,2013-06-30 05:23:00,
2013-06-30 01:28:00,80.4,80.4,30.00,ENE,73,5.0,7.0,100,0.00,,,0.00,0.0,meteohub,2013-06-30 05:28:00,
2013-06-30 01:33:00,80.4,80.4,30.00,East,86,3.0,7.0,100,0.00,,,0.00,0.0,meteohub,2013-06-30 05:33:00,
2013-06-30 01:38:00,80.2,80.2,30.00,NE,42,2.0,7.0,100,0.00,,,0.00,0.0,meteohub,2013-06-30 05:38:00,
2013-06-30 01:43:00,80.2,80.2,29.99,ESE,103,5.0,9.0,100,0.00,,,0.00,0.0,meteohub,2013-06-30 05:43:00,
2013-06-30 01:48:00,80.2,80.2,29.99,ESE,116,2.0,10.0,100,0.00,,,0.00,0.0,meteohub,2013-06-30 05:48:00,
2013-06-30 01:53:00,80.2,80.2,29.99,ENE,72,0.0,10.0,100,0.00,,,0.00,0.0,meteohub,2013-06-30 05:53:00,
2013-06-30 01:58:00,80.2,80.2,29.99,ENE,73,3.0,10.0,100,0.00,,,0.00,0.0,meteohub,2013-06-30 05:58:00,
2013-06-30 02:03:00,80.1,80.1,29.99,East,93,2.0,8.0,100,0.00,,,0.00,0.0,meteohub,2013-06-30 06:03:00,
2013-06-30 02:08:00,80.1,80.1,29.99,East,92,2.0,7.0,100,0.00,,,0.00,0.0,meteohub,2013-06-30 06:08:00,
2013-06-30 02:13:00,80.1,80.1,29.99,ENE,78,3.0,7.0,100,0.00,,,0.00,0.0,meteohub,2013-06-30 06:13:00,
2013-06-30 02:18:00,80.1,80.1,29.99,East,85,6.0,7.0,100,0.00,,,0.00,0.0,meteohub,2013-06-30 06:18:00,
2013-06-30 02:23:00,80.1,80.1,29.99,East,88,0.0,6.0,100,0.00,,,0.00,0.0,meteohub,2013-06-30 06:23:00,
2013-06-30 02:28:00,80.1,80.1,29.99,ENE,68,0.0,6.0,100,0.00,,,0.00,0.0,meteohub,2013-06-30 06:28:00,
2013-06-30 02:33:00,80.1,80.1,29.99,ENE,68,0.0,7.0,100,0.00,,,0.00,0.0,meteohub,2013-06-30 06:33:00,
2013-06-30 02:38:00,79.9,79.9,29.99,ENE,78,0.0,7.0,100,0.00,,,0.00,0.0,meteohub,2013-06-30 06:38:00,
2013-06-30 02:43:00,79.9,79.9,29.99,ENE,75,0.0,3.0,100,0.00,,,0.00,0.0,meteohub,2013-06-30 06:43:00,
2013-06-30 02:48:00,79.9,79.9,29.99,ENE,76,0.0,5.0,100,0.00,,,0.00,0.0,meteohub,2013-06-30 06:48:00,
2013-06-30 02:54:00,79.9,79.9,29.99,ENE,69,0.0,5.0,100,0.00,,,0.00,0.0,meteohub,2013-06-30 06:54:00,
2013-06-30 02:59:00,79.9,79.9,29.98,East,88,0.0,5.0,100,0.00,,,0.00,0.0,meteohub,2013-06-30 06:59:00,
2013-06-30 03:04:00,79.9,79.9,29.98,ENE,76,0.0,7.0,100,0.00,,,0.00,0.0,meteohub,2013-06-30 07:04:00,
2013-06-30 03:09:00,79.9,79.9,29.98,ENE,76,0.0,7.0,100,0.00,,,0.00,0.0,meteohub,2013-06-30 07:09:00,
2013-06-30 03:14:00,79.9,79.9,29.98,ENE,76,0.0,0.0,100,0.00,,,0.00,0.0,meteohub,2013-06-30 07:14:00,
2013-06-30 03:19:00,79.9,79.9,29.98,ENE,66,4.0,0.0,100,0.00,,,0.00,0.0,meteohub,2013-06-30 07:19:00,
2013-06-30 03:24:00,79.9,79.9,29.98,ENE,65,0.0,5.0,100,0.00,,,0.00,0.0,meteohub,2013-06-30 07:24:00,
2013-06-30 03:29:00,79.9,79.9,29.98,ENE,68,0.0,5.0,100,0.00,,,0.00,0.0,meteohub,2013-06-30 07:29:00,
2013-06-30 03:34:00,79.9,79.9,29.98,ENE,72,0.0,5.0,100,0.00,,,0.00,0.0,meteohub,2013-06-30 07:34:00,
2013-06-30 03:39:00,79.9,79.9,29.98,ENE,78,4.0,0.0,100,0.00,,,0.00,0.0,meteohub,2013-06-30 07:39:00,
2013-06-30 03:44:00,79.9,79.9,29.98,ENE,78,0.0,7.0,100,0.00,,,0.00,0.0,meteohub,2013-06-30 07:44:00,
2013-06-30 03:49:00,79.9,79.9,29.98,East,79,0.0,7.0,100,0.00,,,0.00,0.0,meteohub,2013-06-30 07:49:00,
2013-06-30 03:54:00,79.9,79.9,29.98,ENE,78,0.0,7.0,100,0.00,,,0.00,0.0,meteohub,2013-06-30 07:54:00,
2013-06-30 03:59:00,79.9,79.9,29.98,ENE,73,2.0,2.0,100,0.00,,,0.00,0.0,meteohub,2013-06-30 07:59:00,
2013-06-30 04:04:00,79.9,79.9,29.98,ENE,73,0.0,6.0,100,0.00,,,0.00,0.0,meteohub,2013-06-30 08:04:00,
2013-06-30 04:09:00,79.5,79.5,29.98,ENE,75,0.0,6.0,100,0.00,,,0.00,0.0,meteohub,2013-06-30 08:09:00,
2013-06-30 04:14:00,79.5,79.5,29.98,ENE,73,0.0,6.0,100,0.00,,,0.00,0.0,meteohub,2013-06-30 08:14:00,
2013-06-30 04:19:00,79.5,79.5,29.98,ENE,72,0.0,0.0,100,0.00,,,0.00,0.0,meteohub,2013-06-30 08:19:00,
2013-06-30 04:24:00,79.5,79.5,29.98,ENE,73,0.0,0.0,100,0.00,,,0.00,0.0,meteohub,2013-06-30 08:24:00,
2013-06-30 04:29:00,79.5,79.5,29.98,ENE,65,0.0,0.0,100,0.00,,,0.00,0.0,meteohub,2013-06-30 08:29:00,
2013-06-30 04:34:00,79.5,79.5,29.98,ENE,65,3.0,5.0,100,0.00,,,0.00,0.0,meteohub,2013-06-30 08:34:00,
2013-06-30 04:39:00,79.5,79.5,29.98,ENE,65,0.0,5.0,100,0.00,,,0.00,0.0,meteohub,2013-06-30 08:39:00,
2013-06-30 04:44:00,79.5,79.5,29.98,ENE,64,0.0,5.0,100,0.00,,,0.00,0.0,meteohub,2013-06-30 08:44:00,
2013-06-30 04:49:00,79.5,79.5,29.98,ENE,65,0.0,5.0,100,0.00,,,0.00,0.0,meteohub,2013-06-30 08:49:00,
2013-06-30 04:54:00,79.9,79.9,29.98,ENE,65,0.0,5.0,100,0.00,,,0.00,0.0,meteohub,2013-06-30 08:54:00,
2013-06-30 04:59:00,79.9,79.9,29.99,NE,40,3.0,6.0,100,0.00,,,0.00,0.0,meteohub,2013-06-30 08:59:00,
2013-06-30 05:05:00,79.9,79.9,29.99,ENE,61,0.0,7.0,100,0.00,,,0.00,0.0,meteohub,2013-06-30 09:05:00,
2013-06-30 05:10:00,79.9,79.9,29.99,ENE,69,0.0,7.0,100,0.00,,,0.00,0.0,meteohub,2013-06-30 09:10:00,
2013-06-30 05:15:00,79.9,79.9,29.99,ENE,69,0.0,7.0,100,0.00,,,0.00,0.0,meteohub,2013-06-30 09:15:00,
2013-06-30 05:20:00,79.5,79.5,29.99,ENE,69,0.0,5.0,100,0.00,,,0.00,0.0,meteohub,2013-06-30 09:20:00,
2013-06-30 05:25:00,79.5,79.5,29.99,ENE,71,0.0,5.0,100,0.00,,,0.00,0.0,meteohub,2013-06-30 09:25:00,
2013-06-30 05:30:00,79.5,79.5,29.99,ENE,71,2.0,0.0,100,0.00,,,0.00,0.0,meteohub,2013-06-30 09:30:00,
2013-06-30 05:35:00,79.5,79.5,29.99,ENE,69,0.0,5.0,100,0.00,,,0.00,0.0,meteohub,2013-06-30 09:35:00,
2013-06-30 05:40:00,79.5,79.5,29.99,ENE,71,0.0,6.0,100,0.00,,,0.00,0.0,meteohub,2013-06-30 09:40:00,
2013-06-30 05:45:00,79.5,79.5,29.99,ENE,69,0.0,6.0,100,0.00,,,0.00,0.0,meteohub,2013-06-30 09:45:00,
2013-06-30 05:50:00,79.5,79.5,29.99,ENE,69,0.0,6.0,100,0.00,,,0.00,0.0,meteohub,2013-06-30 09:50:00,
2013-06-30 05:55:00,79.3,79.3,29.99,ENE,61,5.0,5.0,100,0.00,,,0.00,0.0,meteohub,2013-06-30 09:55:00,
2013-06-30 06:00:00,79.3,79.3,29.99,ENE,64,0.0,6.0,100,0.00,,,0.00,0.0,meteohub,2013-06-30 10:00:00,
2013-06-30 06:05:00,79.2,79.2,29.99,ENE,66,0.0,6.0,100,0.00,,,0.00,0.0,meteohub,2013-06-30 10:05:00,
2013-06-30 06:10:00,79.2,79.2,29.99,ENE,65,0.0,6.0,100,0.00,,,0.00,0.0,meteohub,2013-06-30 10:10:00,
2013-06-30 06:15:00,79.2,79.2,30.00,ENE,65,0.0,3.0,100,0.00,,,0.00,5.0,meteohub,2013-06-30 10:15:00,
2013-06-30 06:20:00,79.2,79.2,30.00,ENE,65,0.0,0.0,100,0.00,,,0.00,11.0,meteohub,2013-06-30 10:20:00,
2013-06-30 06:25:00,79.2,79.2,30.00,ENE,65,0.0,0.0,100,0.00,,,0.00,16.0,meteohub,2013-06-30 10:25:00,
2013-06-30 06:30:00,79.2,79.2,30.01,ENE,65,0.0,0.0,100,0.00,,,0.00,26.0,meteohub,2013-06-30 10:30:00,
2013-06-30 06:35:00,79.2,79.2,30.01,ENE,65,0.0,0.0,100,0.00,,,0.00,33.0,meteohub,2013-06-30 10:35:00,
2013-06-30 06:40:00,79.2,79.2,30.01,ENE,62,0.0,0.0,100,0.00,,,0.00,32.0,meteohub,2013-06-30 10:40:00,
2013-06-30 06:45:00,79.2,79.2,30.01,ENE,65,0.0,0.0,100,0.00,,,0.02,35.0,meteohub,2013-06-30 10:45:00,
2013-06-30 06:50:00,79.2,79.2,30.01,ENE,65,0.0,0.0,100,0.02,,,0.03,23.0,meteohub,2013-06-30 10:50:00,
2013-06-30 06:55:00,79.2,79.2,30.01,ENE,65,0.0,0.0,100,0.03,,,0.03,44.0,meteohub,2013-06-30 10:55:00,
2013-06-30 07:00:00,79.3,79.3,30.01,ENE,65,0.0,0.0,100,0.03,,,0.03,88.0,meteohub,2013-06-30 11:00:00,
2013-06-30 07:05:00,79.3,79.3,30.01,ENE,65,0.0,0.0,100,0.03,,,0.03,158.0,meteohub,2013-06-30 11:05:00,
2013-06-30 07:10:00,79.5,79.5,30.01,ENE,64,0.0,4.0,100,0.03,,,0.03,185.0,meteohub,2013-06-30 11:10:00,
2013-06-30 07:15:00,79.5,79.5,30.01,SE,127,0.0,4.0,100,0.03,,,0.03,197.0,meteohub,2013-06-30 11:15:00,
2013-06-30 07:20:00,79.2,79.2,30.01,SSE,150,4.0,5.0,100,0.03,,,0.03,42.0,meteohub,2013-06-30 11:20:00,
2013-06-30 07:26:00,79.0,79.0,30.01,SSE,150,3.0,5.0,100,0.03,,,0.03,44.0,meteohub,2013-06-30 11:26:00,
2013-06-30 07:31:00,78.8,78.8,30.01,SSE,151,0.0,6.0,100,0.03,,,0.03,40.0,meteohub,2013-06-30 11:31:00,
2013-06-30 07:36:00,78.1,78.1,30.01,SE,141,3.0,9.0,100,0.03,,,0.03,39.0,meteohub,2013-06-30 11:36:00,
2013-06-30 07:41:00,78.1,78.1,30.01,SE,140,0.0,9.0,100,0.03,,,0.03,42.0,meteohub,2013-06-30 11:41:00,
2013-06-30 07:46:00,78.1,78.1,30.02,SE,131,0.0,9.0,100,0.01,,,0.03,116.0,meteohub,2013-06-30 11:46:00,
2013-06-30 07:51:00,78.6,78.6,30.02,ESE,120,0.0,7.0,100,0.00,,,0.03,208.0,meteohub,2013-06-30 11:51:00,
2013-06-30 07:56:00,79.0,79.0,30.02,SE,128,0.0,6.0,100,0.00,,,0.03,185.0,meteohub,2013-06-30 11:56:00,
2013-06-30 08:01:00,79.2,79.2,30.02,SE,126,0.0,5.0,100,0.00,,,0.03,185.0,meteohub,2013-06-30 12:01:00,
2013-06-30 08:06:00,79.3,79.3,30.02,SE,133,5.0,8.0,100,0.00,,,0.03,208.0,meteohub,2013-06-30 12:06:00,
2013-06-30 08:11:00,79.5,79.5,30.02,ESE,119,5.0,8.0,100,0.00,,,0.03,135.0,meteohub,2013-06-30 12:11:00,
2013-06-30 08:16:00,79.9,79.9,30.02,SE,130,0.0,8.0,100,0.00,,,0.03,132.0,meteohub,2013-06-30 12:16:00,
2013-06-30 08:21:00,80.2,80.2,30.02,ENE,73,3.0,8.0,100,0.00,,,0.03,172.0,meteohub,2013-06-30 12:21:00,
2013-06-30 08:26:00,80.2,79.9,30.02,ENE,72,4.0,7.0,99,0.00,,,0.03,86.0,meteohub,2013-06-30 12:26:00,
2013-06-30 08:31:00,80.2,79.9,30.03,ENE,78,0.0,7.0,99,0.00,,,0.03,79.0,meteohub,2013-06-30 12:31:00,
2013-06-30 08:36:00,80.1,79.7,30.03,East,79,0.0,7.0,99,0.00,,,0.03,97.0,meteohub,2013-06-30 12:36:00,
2013-06-30 08:42:00,80.1,80.1,30.03,East,79,0.0,6.0,100,0.00,,,0.03,121.0,meteohub,2013-06-30 12:42:00,
2013-06-30 08:47:00,79.9,79.9,30.03,East,79,0.0,0.0,100,0.00,,,0.03,69.0,meteohub,2013-06-30 12:47:00,
2013-06-30 08:52:00,79.9,79.9,30.03,East,79,0.0,0.0,100,0.00,,,0.03,93.0,meteohub,2013-06-30 12:52:00,
2013-06-30 08:57:00,79.9,79.9,30.03,East,79,0.0,0.0,100,0.03,,,0.06,123.0,meteohub,2013-06-30 12:57:00,
2013-06-30 09:02:00,79.5,79.5,30.03,ENE,78,0.0,0.0,100,0.03,,,0.06,253.0,meteohub,2013-06-30 13:02:00,
2013-06-30 09:07:00,79.5,79.5,30.03,East,79,0.0,0.0,100,0.03,,,0.06,172.0,meteohub,2013-06-30 13:07:00,
2013-06-30 09:12:00,79.5,79.5,30.03,East,79,0.0,0.0,100,0.03,,,0.06,206.0,meteohub,2013-06-30 13:12:00,
2013-06-30 09:17:00,79.9,79.9,30.03,East,79,0.0,0.0,100,0.03,,,0.06,181.0,meteohub,2013-06-30 13:17:00,
2013-06-30 09:22:00,79.9,79.9,30.03,East,79,0.0,0.0,100,0.03,,,0.06,185.0,meteohub,2013-06-30 13:22:00,
2013-06-30 09:27:00,79.9,79.9,30.03,East,79,0.0,0.0,100,0.03,,,0.06,185.0,meteohub,2013-06-30 13:27:00,
2013-06-30 09:32:00,79.9,79.9,30.03,East,79,0.0,0.0,100,0.03,,,0.06,157.0,meteohub,2013-06-30 13:32:00,
2013-06-30 09:37:00,80.1,80.1,30.03,East,79,0.0,4.0,100,0.03,,,0.06,260.0,meteohub,2013-06-30 13:37:00,
2013-06-30 09:42:00,80.1,80.1,30.04,East,79,0.0,4.0,100,0.03,,,0.06,283.0,meteohub,2013-06-30 13:42:00,
2013-06-30 09:47:00,81.0,81.0,30.04,East,82,0.0,0.0,100,0.03,,,0.06,519.0,meteohub,2013-06-30 13:47:00,
2013-06-30 09:52:00,81.1,81.1,30.04,SE,137,5.0,8.0,100,0.01,,,0.06,503.0,meteohub,2013-06-30 13:52:00,
2013-06-30 09:57:00,81.7,81.7,30.04,ESE,103,0.0,8.0,100,0.00,,,0.06,417.0,meteohub,2013-06-30 13:57:00,
2013-06-30 10:02:00,81.9,81.9,30.04,East,93,3.0,8.0,100,0.00,,,0.06,371.0,meteohub,2013-06-30 14:02:00,
2013-06-30 10:07:00,82.0,82.0,30.04,ESE,104,4.0,9.0,100,0.00,,,0.06,331.0,meteohub,2013-06-30 14:07:00,
2013-06-30 10:12:00,82.2,82.2,30.03,ESE,113,7.0,9.0,100,0.00,,,0.06,267.0,meteohub,2013-06-30 14:12:00,
2013-06-30 10:17:00,82.2,82.2,30.03,ESE,123,1.0,8.0,100,0.00,,,0.06,211.0,meteohub,2013-06-30 14:17:00,
2013-06-30 10:22:00,82.2,82.2,30.03,ESE,119,7.0,8.0,100,0.00,,,0.06,366.0,meteohub,2013-06-30 14:22:00,
2013-06-30 10:27:00,82.4,82.0,30.03,ESE,106,0.0,13.0,99,0.00,,,0.06,394.0,meteohub,2013-06-30 14:27:00,
2013-06-30 10:32:00,82.8,82.2,30.03,SSE,152,2.0,13.0,98,0.00,,,0.06,700.0,meteohub,2013-06-30 14:32:00,
2013-06-30 10:37:00,83.5,82.9,30.03,SSE,148,3.0,13.0,98,0.00,,,0.06,537.0,meteohub,2013-06-30 14:37:00,
2013-06-30 10:42:00,84.4,83.1,30.02,East,88,7.0,11.0,96,0.00,,,0.06,510.0,meteohub,2013-06-30 14:42:00,
2013-06-30 10:48:00,84.7,82.8,30.02,ESE,116,7.0,11.0,94,0.00,,,0.06,510.0,meteohub,2013-06-30 14:48:00,
2013-06-30 10:53:00,84.9,82.4,30.02,ESE,110,8.0,13.0,92,0.00,,,0.06,421.0,meteohub,2013-06-30 14:53:00,
2013-06-30 10:58:00,85.3,82.4,30.02,ESE,102,6.0,14.0,91,0.00,,,0.06,421.0,meteohub,2013-06-30 14:58:00,
2013-06-30 11:03:00,85.5,82.6,30.02,ESE,117,7.0,14.0,91,0.00,,,0.06,303.0,meteohub,2013-06-30 15:03:00,
2013-06-30 11:08:00,85.8,82.6,30.02,ESE,119,5.0,14.0,90,0.00,,,0.06,355.0,meteohub,2013-06-30 15:08:00,
2013-06-30 11:13:00,86.2,82.9,30.02,SE,127,0.0,13.0,90,0.00,,,0.06,274.0,meteohub,2013-06-30 15:13:00,
2013-06-30 11:18:00,85.8,82.9,30.02,SE,145,6.0,13.0,91,0.00,,,0.06,355.0,meteohub,2013-06-30 15:18:00,
2013-06-30 11:23:00,85.5,82.9,30.02,South,172,1.0,9.0,92,0.00,,,0.06,732.0,meteohub,2013-06-30 15:23:00,
2013-06-30 11:28:00,85.3,82.8,30.02,South,185,0.0,9.0,92,0.00,,,0.06,405.0,meteohub,2013-06-30 15:28:00,
2013-06-30 11:33:00,85.3,82.8,30.02,SSW,213,7.0,9.0,92,0.00,,,0.06,348.0,meteohub,2013-06-30 15:33:00,
2013-06-30 11:38:00,84.9,82.4,30.02,SE,138,0.0,10.0,92,0.00,,,0.06,331.0,meteohub,2013-06-30 15:38:00,
2013-06-30 11:43:00,84.6,82.0,30.02,SSW,202,6.0,10.0,92,0.00,,,0.06,348.0,meteohub,2013-06-30 15:43:00,
2013-06-30 11:48:00,84.4,82.0,30.02,South,175,5.0,10.0,93,0.00,,,0.06,211.0,meteohub,2013-06-30 15:48:00,
2013-06-30 11:53:00,83.7,81.5,30.02,SSE,168,3.0,13.0,93,0.00,,,0.06,137.0,meteohub,2013-06-30 15:53:00,
2013-06-30 11:58:00,82.6,80.6,30.02,South,181,5.0,16.0,94,0.00,,,0.06,278.0,meteohub,2013-06-30 15:58:00,
2013-06-30 12:03:00,81.9,80.6,30.02,SSE,154,1.0,16.0,96,0.01,,,0.07,223.0,meteohub,2013-06-30 16:03:00,
2013-06-30 12:08:00,81.0,79.7,30.02,SE,140,6.0,16.0,96,0.02,,,0.08,202.0,meteohub,2013-06-30 16:08:00,
2013-06-30 12:13:00,80.1,79.5,30.01,ESE,119,4.0,12.0,98,0.03,,,0.09,185.0,meteohub,2013-06-30 16:13:00,
2013-06-30 12:14:00,79.9,79.3,30.01,ESE,119,0.0,12.0,98,0.03,,,0.09,204.0,meteohub,2013-06-30 16:14:00,
2013-06-30 12:19:00,79.9,79.5,30.01,SE,140,0.0,11.0,99,0.04,,,0.10,285.0,meteohub,2013-06-30 16:19:00,
2013-06-30 12:24:00,79.9,79.9,30.01,ESE,113,0.0,11.0,100,0.04,,,0.10,250.0,meteohub,2013-06-30 16:24:00,
2013-06-30 12:29:00,79.9,79.9,30.02,ESE,103,5.0,8.0,100,0.04,,,0.10,246.0,meteohub,2013-06-30 16:29:00,
2013-06-30 12:34:00,79.9,79.9,30.02,SE,137,0.0,6.0,100,0.04,,,0.10,280.0,meteohub,2013-06-30 16:34:00,
2013-06-30 12:40:00,80.1,80.1,30.02,ESE,102,0.0,7.0,100,0.04,,,0.10,289.0,meteohub,2013-06-30 16:40:00,
2013-06-30 12:45:00,80.4,80.4,30.01,ESE,103,0.0,7.0,100,0.04,,,0.10,318.0,meteohub,2013-06-30 16:45:00,
2013-06-30 12:50:00,81.0,81.0,30.01,ESE,103,0.0,7.0,100,0.04,,,0.10,387.0,meteohub,2013-06-30 16:50:00,
2013-06-30 12:55:00,81.3,81.3,30.01,ESE,103,0.0,5.0,100,0.04,,,0.10,442.0,meteohub,2013-06-30 16:55:00,
2013-06-30 13:00:00,81.7,81.7,30.01,ESE,102,0.0,0.0,100,0.03,,,0.10,530.0,meteohub,2013-06-30 17:00:00,
2013-06-30 13:05:00,82.2,81.7,30.01,ESE,103,1.0,0.0,98,0.03,,,0.10,463.0,meteohub,2013-06-30 17:05:00,
2013-06-30 13:11:00,82.6,81.7,30.01,East,99,0.0,4.0,97,0.01,,,0.10,523.0,meteohub,2013-06-30 17:11:00,
2013-06-30 13:16:00,82.9,81.7,30.01,East,92,0.0,7.0,96,0.00,,,0.10,509.0,meteohub,2013-06-30 17:16:00,
2013-06-30 13:21:00,83.5,81.5,30.01,SE,126,6.0,7.0,94,0.00,,,0.10,461.0,meteohub,2013-06-30 17:21:00,
2013-06-30 13:26:00,83.8,81.7,30.01,SE,126,0.0,7.0,93,0.00,,,0.10,456.0,meteohub,2013-06-30 17:26:00,
2013-06-30 13:31:00,84.0,81.5,30.01,SE,126,0.0,6.0,92,0.00,,,0.10,399.0,meteohub,2013-06-30 17:31:00,
2013-06-30 13:36:00,84.7,82.2,30.01,SE,126,0.0,6.0,92,0.00,,,0.10,413.0,meteohub,2013-06-30 17:36:00,
2013-06-30 13:41:00,84.9,82.0,30.01,East,85,0.0,5.0,91,0.00,,,0.10,406.0,meteohub,2013-06-30 17:41:00,
2013-06-30 13:46:00,84.7,81.1,30.00,ENE,68,3.0,5.0,89,0.00,,,0.10,412.0,meteohub,2013-06-30 17:46:00,
2013-06-30 13:51:00,84.9,81.7,30.00,NE,55,0.0,6.0,90,0.00,,,0.10,403.0,meteohub,2013-06-30 17:51:00,
2013-06-30 13:56:00,85.3,81.7,30.00,NE,56,0.0,6.0,89,0.00,,,0.10,375.0,meteohub,2013-06-30 17:56:00,
2013-06-30 14:02:00,85.5,81.5,29.99,NE,51,3.0,6.0,88,0.00,,,0.10,391.0,meteohub,2013-06-30 18:02:00,
2013-06-30 14:07:00,85.8,81.9,29.99,East,79,0.0,7.0,88,0.00,,,0.10,658.0,meteohub,2013-06-30 18:07:00,
2013-06-30 14:12:00,86.5,82.6,29.99,East,80,0.0,8.0,88,0.00,,,0.10,220.0,meteohub,2013-06-30 18:12:00,
2013-06-30 14:17:00,86.2,82.2,29.99,East,86,8.0,8.0,88,0.00,,,0.10,130.0,meteohub,2013-06-30 18:17:00,
2013-06-30 14:21:00,84.6,81.3,29.99,NNE,28,101.0,105.0,90,0.04,,,0.14,120.0,meteohub,2013-06-30 18:21:00,
2013-06-30 14:27:00,82.9,81.0,29.99,NE,44,3.0,112.0,94,0.14,,,0.24,62.0,meteohub,2013-06-30 18:27:00,
2013-06-30 14:32:00,81.0,79.3,30.00,East,97,7.0,112.0,95,0.16,,,0.26,72.0,meteohub,2013-06-30 18:32:00,
2013-06-30 14:37:00,79.9,79.0,30.00,ENE,65,6.0,112.0,97,0.16,,,0.26,58.0,meteohub,2013-06-30 18:37:00,
2013-06-30 14:42:00,79.0,78.4,30.00,East,100,0.0,103.0,98,0.16,,,0.26,95.0,meteohub,2013-06-30 18:42:00,
2013-06-30 14:47:00,78.8,78.8,30.00,SE,127,6.0,17.0,100,0.16,,,0.26,146.0,meteohub,2013-06-30 18:47:00,
2013-06-30 14:52:00,78.8,78.8,30.00,SSE,155,12.0,12.0,100,0.16,,,0.26,167.0,meteohub,2013-06-30 18:52:00,
2013-06-30 14:57:00,79.2,78.8,30.00,ESE,121,8.0,16.0,99,0.16,,,0.26,178.0,meteohub,2013-06-30 18:57:00,
2013-06-30 15:02:00,79.9,79.5,30.00,SE,130,7.0,16.0,99,0.16,,,0.26,206.0,meteohub,2013-06-30 19:02:00,
2013-06-30 15:07:00,80.1,79.5,30.00,SE,126,0.0,16.0,98,0.16,,,0.26,227.0,meteohub,2013-06-30 19:07:00,
2013-06-30 15:12:00,80.4,79.5,30.00,SE,131,0.0,10.0,97,0.16,,,0.26,245.0,meteohub,2013-06-30 19:12:00,
2013-06-30 15:17:00,81.0,79.7,29.99,SE,130,6.0,8.0,96,0.16,,,0.26,264.0,meteohub,2013-06-30 19:17:00,
2013-06-30 15:22:00,81.1,79.9,29.99,ESE,120,0.0,8.0,96,0.09,,,0.26,283.0,meteohub,2013-06-30 19:22:00,
2013-06-30 15:27:00,81.9,80.2,29.99,ESE,120,0.0,8.0,95,0.02,,,0.26,297.0,meteohub,2013-06-30 19:27:00,
2013-06-30 15:32:00,82.0,80.1,29.98,ESE,112,2.0,8.0,94,0.00,,,0.26,306.0,meteohub,2013-06-30 19:32:00,
2013-06-30 15:37:00,82.4,80.2,29.98,SE,137,10.0,12.0,93,0.00,,,0.26,310.0,meteohub,2013-06-30 19:37:00,
2013-06-30 15:42:00,82.8,80.2,29.99,ESE,112,0.0,12.0,92,0.00,,,0.26,308.0,meteohub,2013-06-30 19:42:00,
2013-06-30 15:47:00,82.9,80.4,29.99,ESE,120,3.0,12.0,92,0.00,,,0.26,218.0,meteohub,2013-06-30 19:47:00,
2013-06-30 15:52:00,82.9,80.4,29.99,SE,126,0.0,11.0,92,0.00,,,0.26,63.0,meteohub,2013-06-30 19:52:00,
2013-06-30 15:57:00,82.6,80.4,29.99,ESE,107,9.0,11.0,93,0.00,,,0.26,99.0,meteohub,2013-06-30 19:57:00,
2013-06-30 16:02:00,81.7,79.7,29.99,SE,137,8.0,14.0,94,0.03,,,0.29,135.0,meteohub,2013-06-30 20:02:00,
2013-06-30 16:07:00,80.8,79.5,29.99,SSE,155,0.0,17.0,96,0.08,,,0.34,183.0,meteohub,2013-06-30 20:07:00,
2013-06-30 16:13:00,80.2,79.7,29.99,SE,138,0.0,17.0,98,0.08,,,0.34,206.0,meteohub,2013-06-30 20:13:00,
2013-06-30 16:18:00,79.9,79.5,29.99,SE,138,0.0,17.0,99,0.08,,,0.34,213.0,meteohub,2013-06-30 20:18:00,
2013-06-30 16:23:00,79.9,79.9,29.99,SE,140,0.0,11.0,100,0.08,,,0.34,199.0,meteohub,2013-06-30 20:23:00,
2013-06-30 16:28:00,80.1,80.1,29.99,SE,138,0.0,0.0,100,0.08,,,0.34,195.0,meteohub,2013-06-30 20:28:00,
2013-06-30 16:33:00,79.5,79.5,29.99,South,182,0.0,6.0,100,0.08,,,0.34,183.0,meteohub,2013-06-30 20:33:00,
2013-06-30 16:38:00,79.9,79.9,29.99,SSE,160,0.0,8.0,100,0.08,,,0.34,178.0,meteohub,2013-06-30 20:38:00,
2013-06-30 16:43:00,79.9,79.9,29.98,SE,144,0.0,8.0,100,0.08,,,0.34,171.0,meteohub,2013-06-30 20:43:00,
2013-06-30 16:48:00,79.9,79.9,29.98,South,184,0.0,6.0,100,0.08,,,0.34,164.0,meteohub,2013-06-30 20:48:00,
2013-06-30 16:53:00,79.9,79.9,29.98,SSW,208,1.0,9.0,100,0.08,,,0.34,158.0,meteohub,2013-06-30 20:53:00,
2013-06-30 16:58:00,79.9,79.5,29.99,SE,145,0.0,9.0,99,0.06,,,0.34,148.0,meteohub,2013-06-30 20:58:00,
2013-06-30 17:03:00,80.1,79.7,29.99,SSE,151,0.0,9.0,99,0.05,,,0.34,139.0,meteohub,2013-06-30 21:03:00,
2013-06-30 17:08:00,80.2,79.9,29.99,SSE,151,0.0,7.0,99,0.00,,,0.34,132.0,meteohub,2013-06-30 21:08:00,
2013-06-30 17:13:00,80.4,80.1,29.99,SSE,151,0.0,6.0,99,0.00,,,0.34,125.0,meteohub,2013-06-30 21:13:00,
2013-06-30 17:18:00,80.4,80.1,29.99,SSE,155,0.0,6.0,99,0.00,,,0.34,121.0,meteohub,2013-06-30 21:18:00,
2013-06-30 17:23:00,80.4,80.1,29.99,SSE,168,0.0,6.0,99,0.00,,,0.34,118.0,meteohub,2013-06-30 21:23:00,
2013-06-30 17:28:00,80.4,80.1,29.99,SSE,165,0.0,7.0,99,0.00,,,0.34,116.0,meteohub,2013-06-30 21:28:00,
2013-06-30 17:33:00,80.8,80.4,29.99,SSE,165,0.0,7.0,99,0.00,,,0.34,118.0,meteohub,2013-06-30 21:33:00,
2013-06-30 17:38:00,80.8,80.4,29.99,SW,220,0.0,7.0,99,0.00,,,0.34,118.0,meteohub,2013-06-30 21:38:00,
2013-06-30 17:43:00,80.8,80.2,29.98,SW,215,0.0,5.0,98,0.00,,,0.34,114.0,meteohub,2013-06-30 21:43:00,
2013-06-30 17:49:00,81.0,80.4,29.98,SW,215,0.0,4.0,98,0.00,,,0.34,109.0,meteohub,2013-06-30 21:49:00,
2013-06-30 17:54:00,81.0,80.4,29.98,SE,141,0.0,1.0,98,0.00,,,0.34,102.0,meteohub,2013-06-30 21:54:00,
2013-06-30 17:59:00,81.0,80.4,29.98,SSE,154,3.0,8.0,98,0.00,,,0.34,95.0,meteohub,2013-06-30 21:59:00,
2013-06-30 18:04:00,81.0,80.4,29.98,SSE,161,5.0,8.0,98,0.00,,,0.34,95.0,meteohub,2013-06-30 22:04:00,
2013-06-30 18:09:00,81.1,80.6,29.98,SSE,164,0.0,8.0,98,0.00,,,0.34,99.0,meteohub,2013-06-30 22:09:00,
2013-06-30 18:14:00,81.1,80.6,29.98,SSE,161,0.0,7.0,98,0.00,,,0.34,95.0,meteohub,2013-06-30 22:14:00,
2013-06-30 18:19:00,81.1,80.6,29.98,SSE,162,0.0,5.0,98,0.00,,,0.34,93.0,meteohub,2013-06-30 22:19:00,
2013-06-30 18:24:00,81.1,80.2,29.98,SSE,161,0.0,0.0,97,0.00,,,0.34,95.0,meteohub,2013-06-30 22:24:00,
2013-06-30 18:29:00,81.3,80.4,29.99,ESE,121,0.0,0.0,97,0.00,,,0.34,88.0,meteohub,2013-06-30 22:29:00,
2013-06-30 18:34:00,81.1,80.2,29.99,SE,141,6.0,7.0,97,0.00,,,0.34,79.0,meteohub,2013-06-30 22:34:00,
2013-06-30 18:39:00,81.1,80.2,29.99,SE,143,0.0,7.0,97,0.00,,,0.34,53.0,meteohub,2013-06-30 22:39:00,
2013-06-30 18:44:00,81.1,80.2,30.00,SE,137,5.0,8.0,97,0.00,,,0.34,53.0,meteohub,2013-06-30 22:44:00,
2013-06-30 18:49:00,81.0,80.4,30.00,SE,136,0.0,8.0,98,0.00,,,0.34,37.0,meteohub,2013-06-30 22:49:00,
2013-06-30 18:54:00,81.0,80.4,30.00,SE,137,0.0,8.0,98,0.00,,,0.34,18.0,meteohub,2013-06-30 22:54:00,
2013-06-30 18:59:00,80.8,80.2,30.01,SE,137,0.0,7.0,98,0.00,,,0.34,9.0,meteohub,2013-06-30 22:59:00,
2013-06-30 19:04:00,80.8,80.2,30.01,SE,137,0.0,0.0,98,0.00,,,0.34,0.0,meteohub,2013-06-30 23:04:00,
2013-06-30 19:09:00,80.4,80.1,30.01,SE,137,0.0,0.0,99,0.00,,,0.34,0.0,meteohub,2013-06-30 23:09:00,
2013-06-30 19:14:00,80.4,80.1,30.01,SE,137,0.0,0.0,99,0.00,,,0.34,0.0,meteohub,2013-06-30 23:14:00,
2013-06-30 19:19:00,80.2,79.9,30.01,SE,137,0.0,0.0,99,0.00,,,0.34,0.0,meteohub,2013-06-30 23:19:00,
2013-06-30 19:24:00,80.2,80.2,30.01,SE,137,0.0,0.0,100,0.00,,,0.34,0.0,meteohub,2013-06-30 23:24:00,
2013-06-30 19:29:00,80.1,80.1,30.02,East,92,5.0,0.0,100,0.00,,,0.34,0.0,meteohub,2013-06-30 23:29:00,
2013-06-30 19:34:00,80.2,80.2,30.02,East,97,0.0,6.0,100,0.00,,,0.34,0.0,meteohub,2013-06-30 23:34:00,
2013-06-30 19:39:00,80.2,80.2,30.02,East,99,2.0,6.0,100,0.00,,,0.34,0.0,meteohub,2013-06-30 23:39:00,
2013-06-30 19:44:00,80.2,80.2,30.02,East,99,0.0,6.0,100,0.00,,,0.34,0.0,meteohub,2013-06-30 23:44:00,
2013-06-30 19:49:00,80.2,80.2,30.02,East,99,0.0,6.0,100,0.00,,,0.34,0.0,meteohub,2013-06-30 23:49:00,
2013-06-30 19:54:00,80.1,79.7,30.02,East,99,0.0,6.0,99,0.00,,,0.34,0.0,meteohub,2013-06-30 23:54:00,
2013-06-30 19:59:00,80.1,79.7,30.04,East,99,0.0,0.0,99,0.00,,,0.34,0.0,meteohub,2013-06-30 23:59:00,
2013-06-30 20:04:00,80.1,79.7,30.04,East,100,0.0,0.0,99,0.00,,,0.34,0.0,meteohub,2013-07-01 00:04:00,
2013-06-30 20:09:00,80.2,79.9,30.04,East,99,0.0,0.0,99,0.00,,,0.34,0.0,meteohub,2013-07-01 00:09:00,
2013-06-30 20:14:00,80.2,79.9,30.04,SSW,196,0.0,6.0,99,0.00,,,0.34,0.0,meteohub,2013-07-01 00:14:00,
2013-06-30 20:19:00,79.9,79.9,30.04,SSW,195,0.0,6.0,100,0.00,,,0.34,0.0,meteohub,2013-07-01 00:19:00,
2013-06-30 20:24:00,79.5,79.5,30.04,SSW,196,0.0,4.0,100,0.00,,,0.34,0.0,meteohub,2013-07-01 00:24:00,
2013-06-30 20:29:00,79.3,79.3,30.04,South,189,0.0,4.0,100,0.00,,,0.34,0.0,meteohub,2013-07-01 00:29:00,
2013-06-30 20:34:00,79.2,79.2,30.04,SSW,196,0.0,0.0,100,0.00,,,0.34,0.0,meteohub,2013-07-01 00:34:00,
2013-06-30 20:40:00,79.3,79.3,30.04,SSW,196,0.0,0.0,100,0.00,,,0.34,0.0,meteohub,2013-07-01 00:40:00,
2013-06-30 20:45:00,79.2,79.2,30.05,SSW,196,0.0,0.0,100,0.00,,,0.34,0.0,meteohub,2013-07-01 00:45:00,
2013-06-30 20:50:00,79.2,79.2,30.05,SSW,196,0.0,0.0,100,0.00,,,0.34,0.0,meteohub,2013-07-01 00:50:00,
2013-06-30 20:55:00,79.0,79.0,30.05,SSW,196,0.0,0.0,100,0.00,,,0.34,0.0,meteohub,2013-07-01 00:55:00,
2013-06-30 21:00:00,78.8,78.4,30.05,SSW,196,0.0,0.0,99,0.00,,,0.34,0.0,meteohub,2013-07-01 01:00:00,
2013-06-30 21:05:00,79.0,78.6,30.05,SSW,196,0.0,0.0,99,0.00,,,0.34,0.0,meteohub,2013-07-01 01:05:00,
2013-06-30 21:10:00,79.0,78.6,30.05,SSW,196,0.0,0.0,99,0.00,,,0.34,0.0,meteohub,2013-07-01 01:10:00,
2013-06-30 21:15:00,79.0,78.6,30.06,SSW,196,0.0,0.0,99,0.00,,,0.34,0.0,meteohub,2013-07-01 01:15:00,
2013-06-30 21:20:00,79.0,78.6,30.06,SSW,198,0.0,0.0,99,0.00,,,0.34,0.0,meteohub,2013-07-01 01:20:00,
2013-06-30 21:25:00,78.8,78.4,30.06,SSW,196,0.0,0.0,99,0.00,,,0.34,0.0,meteohub,2013-07-01 01:25:00,
2013-06-30 21:30:00,78.8,78.4,30.06,SSW,196,0.0,0.0,99,0.00,,,0.34,0.0,meteohub,2013-07-01 01:30:00,
2013-06-30 21:35:00,78.8,78.4,30.06,SSW,196,0.0,0.0,99,0.00,,,0.34,0.0,meteohub,2013-07-01 01:35:00,
2013-06-30 21:40:00,78.8,78.3,30.06,SSW,195,0.0,0.0,98,0.00,,,0.34,0.0,meteohub,2013-07-01 01:40:00,
2013-06-30 21:45:00,78.8,78.3,30.06,SSW,196,0.0,0.0,98,0.00,,,0.34,0.0,meteohub,2013-07-01 01:45:00,
2013-06-30 21:50:00,78.8,78.3,30.06,SSW,195,0.0,0.0,98,0.00,,,0.34,0.0,meteohub,2013-07-01 01:50:00,
2013-06-30 21:55:00,78.8,78.4,30.06,SSW,195,0.0,0.0,99,0.00,,,0.34,0.0,meteohub,2013-07-01 01:55:00,
2013-06-30 22:00:00,78.8,78.3,30.06,SSW,195,0.0,0.0,98,0.00,,,0.34,0.0,meteohub,2013-07-01 02:00:00,
2013-06-30 22:05:00,78.6,78.3,30.06,South,191,0.0,0.0,99,0.00,,,0.34,0.0,meteohub,2013-07-01 02:05:00,
2013-06-30 22:10:00,78.8,78.4,30.06,SSW,195,0.0,0.0,99,0.00,,,0.34,0.0,meteohub,2013-07-01 02:10:00,
2013-06-30 22:15:00,78.6,78.3,30.07,SSW,195,0.0,0.0,99,0.00,,,0.34,0.0,meteohub,2013-07-01 02:15:00,
2013-06-30 22:21:00,78.6,78.3,30.07,SSW,196,0.0,0.0,99,0.00,,,0.34,0.0,meteohub,2013-07-01 02:21:00,
2013-06-30 22:26:00,78.6,78.6,30.07,SSW,195,0.0,0.0,100,0.00,,,0.34,0.0,meteohub,2013-07-01 02:26:00,
2013-06-30 22:31:00,78.6,78.6,30.07,SSW,196,0.0,0.0,100,0.00,,,0.34,0.0,meteohub,2013-07-01 02:31:00,
2013-06-30 22:36:00,78.4,78.4,30.07,SSW,196,0.0,0.0,100,0.00,,,0.34,0.0,meteohub,2013-07-01 02:36:00,
2013-06-30 22:41:00,78.4,78.4,30.07,SSW,196,0.0,0.0,100,0.00,,,0.34,0.0,meteohub,2013-07-01 02:41:00,
2013-06-30 22:46:00,78.3,78.3,30.07,SSW,196,0.0,0.0,100,0.00,,,0.34,0.0,meteohub,2013-07-01 02:46:00,
2013-06-30 22:51:00,78.3,78.3,30.07,SSW,196,0.0,0.0,100,0.00,,,0.34,0.0,meteohub,2013-07-01 02:51:00,
2013-06-30 22:56:00,78.3,78.3,30.07,SSW,196,0.0,0.0,100,0.00,,,0.34,0.0,meteohub,2013-07-01 02:56:00,
2013-06-30 23:01:00,78.3,78.3,30.07,SSW,195,0.0,0.0,100,0.00,,,0.34,0.0,meteohub,2013-07-01 03:01:00,
2013-06-30 23:06:00,78.1,78.1,30.07,SSW,196,0.0,0.0,100,0.00,,,0.34,0.0,meteohub,2013-07-01 03:06:00,
2013-06-30 23:11:00,78.1,78.1,30.07,SSW,196,0.0,0.0,100,0.00,,,0.34,0.0,meteohub,2013-07-01 03:11:00,
2013-06-30 23:16:00,78.3,78.3,30.06,SSW,196,0.0,0.0,100,0.00,,,0.34,0.0,meteohub,2013-07-01 03:16:00,
2013-06-30 23:21:00,78.1,78.1,30.06,SSW,196,0.0,0.0,100,0.00,,,0.34,0.0,meteohub,2013-07-01 03:21:00,
2013-06-30 23:26:00,78.1,78.1,30.06,SSW,196,0.0,0.0,100,0.00,,,0.34,0.0,meteohub,2013-07-01 03:26:00,
2013-06-30 23:31:00,78.1,78.1,30.06,SSW,196,0.0,0.0,100,0.00,,,0.34,0.0,meteohub,2013-07-01 03:31:00,
2013-06-30 23:36:00,77.9,77.9,30.06,SSW,195,0.0,0.0,100,0.00,,,0.34,0.0,meteohub,2013-07-01 03:36:00,
2013-06-30 23:41:00,77.9,77.9,30.06,South,191,0.0,1.0,100,0.00,,,0.34,0.0,meteohub,2013-07-01 03:41:00,
2013-06-30 23:46:00,77.9,77.9,30.06,SSW,195,0.0,1.0,100,0.00,,,0.34,0.0,meteohub,2013-07-01 03:46:00,
2013-06-30 23:51:00,77.9,77.9,30.06,SSW,196,0.0,1.0,100,0.00,,,0.34,0.0,meteohub,2013-07-01 03:51:00,
2013-06-30 23:56:00,77.7,77.7,30.06,SSW,195,0.0,0.0,100,0.00,,,0.34,0.0,meteohub,2013-07-01 03:56:00,